Time;durP1;ratioP1;P1;durP2;ratioP2;P2;SDS_P1;SDS_P2;PMS_P1;PMS_P2;Temp;Humidity;BMP_temperature;BMP_pressure;BME280_temperature;BME280_humidity;BME280_pressure;Samples;Min_cycle;Max_cycle;Signal;HPM_P1;HPM_P2
2021/04/24 00:01:01;;;;;;;94.33;31.33;;;3.40;99.90;;;;;;4446835;28;658570;-67
2021/04/24 00:03:49;;;;;;;85.20;28.87;;;3.40;99.90;;;;;;4426171;28;657550;-69
2021/04/24 00:06:35;;;;;;;81.90;28.90;;;3.40;99.90;;;;;;4447037;28;658739;-67
2021/04/24 00:09:22;;;;;;;93.30;30.57;;;3.30;99.90;;;;;;4427266;28;657776;-68
2021/04/24 00:12:10;;;;;;;81.20;28.97;;;3.30;99.90;;;;;;4450886;28;658482;-67
2021/04/24 00:14:57;;;;;;;70.03;28.43;;;3.30;99.90;;;;;;4443996;28;657922;-69
2021/04/24 00:17:44;;;;;;;98.77;34.00;;;3.20;99.90;;;;;;4450277;28;658212;-68
2021/04/24 00:20:32;;;;;;;84.73;29.63;;;3.20;99.90;;;;;;4446644;28;657375;-67
2021/04/24 00:23:19;;;;;;;76.23;30.67;;;3.20;99.90;;;;;;4427761;28;657883;-68
2021/04/24 00:26:06;;;;;;;74.00;28.73;;;3.10;99.90;;;;;;4445962;28;658269;-68
2021/04/24 00:28:53;;;;;;;83.17;31.40;;;3.10;99.90;;;;;;4427612;28;657538;-67
2021/04/24 00:31:40;;;;;;;74.90;30.15;;;3.00;99.90;;;;;;4449727;28;658283;-68
2021/04/24 00:34:27;;;;;;;69.50;26.63;;;3.00;99.90;;;;;;4420480;28;657553;-68
2021/04/24 00:37:15;;;;;;;58.63;23.77;;;3.00;99.90;;;;;;4450126;28;657242;-67
2021/04/24 00:40:03;;;;;;;75.25;33.83;;;3.00;99.90;;;;;;4419247;28;658213;-69
2021/04/24 00:42:51;;;;;;;81.87;33.73;;;2.90;99.90;;;;;;4432832;28;658189;-67
2021/04/24 00:45:38;;;;;;;69.57;31.73;;;2.90;99.90;;;;;;4427303;28;657974;-67
2021/04/24 00:48:24;;;;;;;79.17;33.10;;;3.00;99.90;;;;;;4450088;28;657928;-66
2021/04/24 00:51:11;;;;;;;79.17;32.87;;;3.00;99.90;;;;;;4445379;28;658275;-67
2021/04/24 00:53:59;;;;;;;75.73;32.30;;;3.00;99.90;;;;;;4410637;28;657833;-67
2021/04/24 00:56:46;;;;;;;73.47;32.00;;;2.90;99.90;;;;;;4445853;28;657734;-67
2021/04/24 00:59:34;;;;;;;69.80;28.17;;;2.90;99.90;;;;;;4403238;28;658169;-68
2021/04/24 01:02:21;;;;;;;69.40;29.83;;;2.80;99.90;;;;;;4445595;28;658421;-68
2021/04/24 01:05:09;;;;;;;76.10;31.50;;;2.80;99.90;;;;;;4427156;28;658074;-68
2021/04/24 01:07:56;;;;;;;72.30;29.00;;;2.80;99.90;;;;;;4444631;28;657305;-67
2021/04/24 01:10:44;;;;;;;79.97;31.50;;;2.80;99.90;;;;;;4420943;28;658010;-67
2021/04/24 01:13:31;;;;;;;72.37;31.43;;;2.80;99.90;;;;;;4445072;28;657253;-67
2021/04/24 01:16:18;;;;;;;77.30;31.07;;;2.80;99.90;;;;;;4426739;28;657842;-69
2021/04/24 01:19:05;;;;;;;71.05;29.55;;;2.80;99.90;;;;;;4445277;28;657793;-67
2021/04/24 01:21:56;;;;;;;63.67;25.75;;;2.80;99.90;;;;;;4426681;28;658885;-68
2021/04/24 01:24:44;;;;;;;76.20;28.57;;;2.80;99.90;;;;;;4422906;28;657530;-67
2021/04/24 01:27:31;;;;;;;65.30;27.58;;;2.80;99.90;;;;;;4444891;28;657553;-68
2021/04/24 01:30:19;;;;;;;66.53;27.27;;;2.70;99.90;;;;;;4427146;28;657787;-67
2021/04/24 01:33:09;;;;;;;77.47;26.93;;;2.80;99.90;;;;;;4424354;28;657010;-67
2021/04/24 01:35:56;;;;;;;69.97;26.83;;;2.80;99.90;;;;;;4419683;28;658110;-67
2021/04/24 01:38:43;;;;;;;70.83;25.87;;;2.80;99.90;;;;;;4417275;28;658118;-68
2021/04/24 01:41:31;;;;;;;63.20;25.40;;;2.90;99.90;;;;;;4440884;28;658584;-67
2021/04/24 01:44:18;;;;;;;75.03;26.03;;;2.90;99.90;;;;;;4426159;28;657932;-68
2021/04/24 01:47:05;;;;;;;70.00;25.63;;;3.00;99.90;;;;;;4443805;28;657859;-66
2021/04/24 01:49:52;;;;;;;65.87;25.60;;;3.00;99.90;;;;;;4429392;28;657680;-69
2021/04/24 01:52:39;;;;;;;67.63;25.63;;;3.00;99.90;;;;;;4443371;28;658360;-67
2021/04/24 01:55:27;;;;;;;64.63;25.40;;;3.00;99.90;;;;;;4443776;28;657537;-67
2021/04/24 01:58:17;;;;;;;64.97;24.40;;;3.00;99.90;;;;;;4415477;28;657923;-68
2021/04/24 02:01:05;;;;;;;67.37;24.17;;;3.00;99.90;;;;;;4425911;28;658413;-67
2021/04/24 02:03:53;;;;;;;68.63;24.67;;;3.00;99.90;;;;;;4409613;28;658039;-68
2021/04/24 02:06:40;;;;;;;61.17;25.03;;;3.00;99.90;;;;;;4444068;28;658146;-68
2021/04/24 02:09:27;;;;;;;65.40;26.87;;;3.00;99.90;;;;;;4431754;28;657492;-69
2021/04/24 02:12:14;;;;;;;66.47;25.17;;;3.10;99.90;;;;;;4445337;28;657670;-68
2021/04/24 02:15:03;;;;;;;62.80;25.53;;;3.10;99.90;;;;;;4443448;28;657615;-67
2021/04/24 02:17:50;;;;;;;61.60;25.17;;;3.10;99.90;;;;;;4425424;28;658399;-67
2021/04/24 02:20:38;;;;;;;70.00;25.38;;;3.10;99.90;;;;;;4426721;28;658386;-67
2021/04/24 02:23:25;;;;;;;61.27;24.97;;;3.10;99.90;;;;;;4447409;28;658085;-67
2021/04/24 02:26:12;;;;;;;69.57;25.33;;;3.10;99.90;;;;;;4412672;28;657820;-67
2021/04/24 02:28:59;;;;;;;72.23;24.47;;;3.20;99.90;;;;;;4448328;28;658529;-67
2021/04/24 02:31:47;;;;;;;59.73;23.37;;;3.20;99.90;;;;;;4448537;28;658728;-67
2021/04/24 02:34:34;;;;;;;56.00;21.60;;;3.10;99.90;;;;;;4428486;28;658218;-67
2021/04/24 02:37:21;;;;;;;49.80;19.90;;;3.20;99.90;;;;;;4448563;28;658093;-67
2021/04/24 02:40:11;;;;;;;59.73;21.70;;;3.20;99.90;;;;;;4426566;28;657857;-68
2021/04/24 02:42:58;;;;;;;58.50;19.50;;;3.10;99.90;;;;;;4401009;28;658174;-69
2021/04/24 02:45:45;;;;;;;49.53;18.47;;;3.10;99.90;;;;;;4440102;28;658958;-67
2021/04/24 02:48:33;;;;;;;49.83;19.58;;;3.10;99.90;;;;;;4432847;28;657732;-69
2021/04/24 02:51:20;;;;;;;55.57;19.03;;;3.10;99.90;;;;;;4441938;28;657628;-68
2021/04/24 02:54:08;;;;;;;48.83;17.97;;;3.10;99.90;;;;;;4423298;28;657479;-68
2021/04/24 02:56:55;;;;;;;49.77;19.03;;;3.10;99.90;;;;;;4448690;28;658134;-66
2021/04/24 02:59:42;;;;;;;42.03;18.00;;;3.10;99.90;;;;;;4440377;28;657347;-69
2021/04/24 03:02:29;;;;;;;54.30;18.87;;;3.10;99.90;;;;;;4452096;28;658014;-67
2021/04/24 03:05:17;;;;;;;48.40;19.17;;;3.10;99.90;;;;;;4447690;28;657627;-67
2021/04/24 03:08:05;;;;;;;50.28;19.83;;;3.10;99.90;;;;;;4420616;28;658736;-67
2021/04/24 03:10:52;;;;;;;52.10;19.53;;;3.10;99.90;;;;;;4423825;28;657498;-68
2021/04/24 03:13:39;;;;;;;47.67;19.27;;;3.10;99.90;;;;;;4450597;28;657393;-67
2021/04/24 03:16:26;;;;;;;50.95;18.95;;;3.10;99.90;;;;;;4439817;28;657148;-68
2021/04/24 03:19:13;;;;;;;60.88;21.05;;;3.10;99.90;;;;;;4428712;28;657505;-67
2021/04/24 03:22:01;;;;;;;49.37;18.13;;;3.10;99.90;;;;;;4446175;28;658599;-68
2021/04/24 03:24:48;;;;;;;50.87;18.67;;;3.10;99.90;;;;;;4428620;28;657501;-68
2021/04/24 03:27:35;;;;;;;41.90;17.60;;;3.20;99.90;;;;;;4446752;28;659206;-67
2021/04/24 03:30:23;;;;;;;60.20;19.10;;;3.10;99.90;;;;;;4428349;28;657177;-69
2021/04/24 03:33:10;;;;;;;48.40;18.37;;;3.20;99.90;;;;;;4450943;28;657226;-67
2021/04/24 03:35:57;;;;;;;51.67;18.90;;;3.10;99.90;;;;;;4444590;28;657692;-69
2021/04/24 03:38:45;;;;;;;50.00;19.23;;;3.10;99.90;;;;;;4446966;28;657183;-68
2021/04/24 03:41:32;;;;;;;50.28;18.85;;;3.20;99.90;;;;;;4420585;28;658206;-69
2021/04/24 03:44:19;;;;;;;57.10;19.40;;;3.20;99.90;;;;;;4450328;28;658033;-68
2021/04/24 03:47:06;;;;;;;56.90;19.60;;;3.30;99.90;;;;;;4438656;28;657650;-67
2021/04/24 03:49:53;;;;;;;56.23;19.40;;;3.30;99.90;;;;;;4422392;28;657284;-68
2021/04/24 03:52:40;;;;;;;50.83;18.75;;;3.30;99.90;;;;;;4446304;28;657488;-67
2021/04/24 03:55:28;;;;;;;51.50;18.93;;;3.30;99.90;;;;;;4419402;28;658540;-68
2021/04/24 03:58:15;;;;;;;52.20;18.60;;;3.30;99.90;;;;;;4450786;28;658303;-67
2021/04/24 04:01:02;;;;;;;57.33;19.33;;;3.40;99.90;;;;;;4428212;28;657855;-69
2021/04/24 04:03:49;;;;;;;59.63;18.30;;;3.40;99.90;;;;;;4450653;28;657562;-67
2021/04/24 04:06:36;;;;;;;45.55;18.55;;;3.50;99.90;;;;;;4445848;28;657329;-67
2021/04/24 04:09:23;;;;;;;51.10;18.55;;;3.50;99.90;;;;;;4428144;28;657593;-67
2021/04/24 04:12:11;;;;;;;53.83;18.40;;;3.50;99.90;;;;;;4446397;28;658375;-67
2021/04/24 04:14:58;;;;;;;46.33;17.70;;;3.60;99.90;;;;;;4427874;28;658024;-67
2021/04/24 04:17:51;;;;;;;46.03;17.93;;;3.70;99.90;;;;;;4446903;28;657878;-67
2021/04/24 04:20:39;;;;;;;46.23;18.40;;;3.70;99.90;;;;;;4395072;28;657595;-67
2021/04/24 04:23:26;;;;;;;41.60;17.60;;;3.80;99.90;;;;;;4435398;28;657349;-67
2021/04/24 04:26:13;;;;;;;54.33;18.67;;;3.90;99.90;;;;;;4404589;28;657950;-68
2021/04/24 04:29:01;;;;;;;48.50;19.00;;;3.90;99.90;;;;;;4428045;28;658144;-67
2021/04/24 04:31:48;;;;;;;53.13;20.07;;;3.90;99.90;;;;;;4427400;28;658393;-68
2021/04/24 04:34:35;;;;;;;55.77;18.13;;;3.90;99.90;;;;;;4450112;28;657851;-69
2021/04/24 04:37:22;;;;;;;45.95;17.88;;;3.90;99.90;;;;;;4431345;28;657758;-69
2021/04/24 04:40:11;;;;;;;47.70;18.03;;;3.90;99.90;;;;;;4451008;28;657322;-67
2021/04/24 04:42:58;;;;;;;48.40;17.57;;;4.00;99.90;;;;;;4426801;28;658308;-67
2021/04/24 04:45:46;;;;;;;48.80;17.17;;;4.00;99.90;;;;;;4443131;28;657928;-67
2021/04/24 04:48:33;;;;;;;47.57;18.43;;;4.00;99.90;;;;;;4427030;28;658188;-68
2021/04/24 04:51:20;;;;;;;51.20;18.20;;;4.00;99.90;;;;;;4442916;28;658119;-67
2021/04/24 04:54:07;;;;;;;45.70;16.43;;;4.10;99.90;;;;;;4434679;28;657584;-69
2021/04/24 04:56:54;;;;;;;41.83;16.60;;;4.10;99.90;;;;;;4446959;28;658047;-67
2021/04/24 04:59:42;;;;;;;45.30;17.50;;;4.10;99.90;;;;;;4444226;28;657837;-66
2021/04/24 05:02:30;;;;;;;44.47;16.47;;;4.20;99.90;;;;;;4422911;28;658491;-68
2021/04/24 05:05:17;;;;;;;46.03;17.23;;;4.30;99.90;;;;;;4442941;28;657818;-69
2021/04/24 05:08:07;;;;;;;44.87;17.47;;;4.30;99.90;;;;;;4445402;28;658765;-68
2021/04/24 05:10:54;;;;;;;44.00;15.90;;;4.40;99.90;;;;;;4426642;28;658334;-68
2021/04/24 05:13:42;;;;;;;40.20;15.77;;;4.40;99.90;;;;;;4436329;28;657848;-68
2021/04/24 05:16:29;;;;;;;38.20;15.57;;;4.40;99.90;;;;;;4422270;28;658101;-67
2021/04/24 05:19:17;;;;;;;37.15;14.85;;;4.60;99.90;;;;;;4437875;28;657797;-66
2021/04/24 05:22:04;;;;;;;40.13;16.20;;;4.60;99.90;;;;;;4422029;28;658269;-68
2021/04/24 05:24:51;;;;;;;49.13;19.77;;;4.70;99.90;;;;;;4444454;28;657405;-68
2021/04/24 05:27:39;;;;;;;50.83;17.93;;;4.80;99.90;;;;;;4420107;28;658026;-67
2021/04/24 05:30:26;;;;;;;43.73;18.10;;;4.90;99.90;;;;;;4445617;28;657586;-67
2021/04/24 05:33:13;;;;;;;44.50;17.73;;;4.90;99.90;;;;;;4424538;28;657690;-68
2021/04/24 05:36:04;;;;;;;44.03;16.47;;;5.00;99.90;;;;;;4444728;28;658305;-67
2021/04/24 05:38:51;;;;;;;36.67;15.40;;;5.00;99.90;;;;;;4423066;28;657383;-67
2021/04/24 05:41:39;;;;;;;31.20;12.53;;;5.10;99.90;;;;;;4422987;28;657391;-67
2021/04/24 05:44:26;;;;;;;36.83;12.63;;;5.10;99.90;;;;;;4445618;28;658380;-68
2021/04/24 05:47:13;;;;;;;35.93;14.10;;;5.30;99.90;;;;;;4428745;28;658256;-68
2021/04/24 05:49:59;;;;;;;36.03;12.00;;;5.40;99.90;;;;;;4446256;28;659193;-68
2021/04/24 05:52:47;;;;;;;31.63;12.43;;;5.50;99.90;;;;;;4443222;28;657644;-67
2021/04/24 05:55:34;;;;;;;26.23;8.97;;;5.60;99.90;;;;;;4425933;28;658471;-67
2021/04/24 05:58:21;;;;;;;23.97;9.00;;;5.70;99.90;;;;;;4445500;28;656390;-67
2021/04/24 06:01:09;;;;;;;19.00;8.37;;;5.90;99.90;;;;;;4428676;28;656511;-67
2021/04/24 06:03:56;;;;;;;20.60;8.37;;;5.90;99.90;;;;;;4450295;28;657201;-67
2021/04/24 06:06:43;;;;;;;19.63;7.70;;;6.00;99.90;;;;;;4422162;28;656064;-68
2021/04/24 06:09:30;;;;;;;16.80;6.17;;;6.20;99.90;;;;;;4450031;28;657073;-67
2021/04/24 06:12:17;;;;;;;16.23;5.87;;;6.20;99.90;;;;;;4423918;28;657112;-68
2021/04/24 06:15:06;;;;;;;15.03;4.73;;;6.30;99.90;;;;;;4448854;28;658097;-67
2021/04/24 06:17:53;;;;;;;13.00;4.87;;;6.40;99.90;;;;;;4430782;28;656371;-67
2021/04/24 06:20:40;;;;;;;12.17;4.47;;;6.40;99.90;;;;;;4451120;28;657340;-67
2021/04/24 06:23:27;;;;;;;11.45;4.50;;;6.50;99.90;;;;;;4428072;28;656345;-69
2021/04/24 06:26:15;;;;;;;13.93;4.40;;;6.60;99.90;;;;;;4451991;28;657452;-68
2021/04/24 06:29:03;;;;;;;11.98;4.63;;;6.70;99.90;;;;;;4425267;28;656911;-68
2021/04/24 06:31:50;;;;;;;15.50;4.43;;;6.90;99.90;;;;;;4448092;28;657607;-68
2021/04/24 06:34:37;;;;;;;15.67;5.63;;;7.10;99.90;;;;;;4450585;28;656325;-68
2021/04/24 06:37:23;;;;;;;17.33;5.33;;;7.30;99.90;;;;;;4425321;28;656428;-70
2021/04/24 06:40:12;;;;;;;11.50;4.40;;;7.40;99.90;;;;;;4441563;28;657010;-69
2021/04/24 06:43:00;;;;;;;13.40;5.00;;;7.40;99.90;;;;;;4421697;28;657970;-67
2021/04/24 06:45:47;;;;;;;16.57;5.67;;;7.30;99.90;;;;;;4435815;28;656960;-67
2021/04/24 06:48:34;;;;;;;15.77;6.27;;;7.40;99.90;;;;;;4447478;28;656595;-70
2021/04/24 06:51:21;;;;;;;16.30;6.07;;;7.40;99.90;;;;;;4442481;28;656337;-69
2021/04/24 06:54:08;;;;;;;15.10;5.33;;;7.50;99.90;;;;;;4430095;28;656849;-69
2021/04/24 06:56:55;;;;;;;15.05;6.00;;;7.70;99.90;;;;;;4445430;28;656564;-70
2021/04/24 06:59:44;;;;;;;19.10;7.50;;;7.90;99.90;;;;;;4430287;28;656546;-69
2021/04/24 07:02:31;;;;;;;16.07;7.13;;;7.80;99.90;;;;;;4449450;28;657171;-71
2021/04/24 07:05:18;;;;;;;22.13;7.30;;;7.80;99.90;;;;;;4415491;28;656306;-70
2021/04/24 07:08:05;;;;;;;12.70;6.20;;;8.00;99.90;;;;;;4448900;28;657294;-67
2021/04/24 07:10:52;;;;;;;18.30;4.37;;;8.00;99.90;;;;;;4433694;28;656303;-68
2021/04/24 07:13:39;;;;;;;16.93;4.53;;;8.00;99.90;;;;;;4453542;28;656727;-70
2021/04/24 07:16:27;;;;;;;16.07;4.97;;;8.10;99.90;;;;;;4448587;28;656919;-69
2021/04/24 07:19:14;;;;;;;15.20;6.17;;;8.40;99.90;;;;;;4419568;28;657089;-70
2021/04/24 07:22:01;;;;;;;20.37;7.37;;;8.40;99.90;;;;;;4442941;28;656487;-70
2021/04/24 07:24:48;;;;;;;17.97;6.83;;;8.50;99.90;;;;;;4422982;28;656702;-70
2021/04/24 07:27:35;;;;;;;15.57;6.10;;;8.50;99.90;;;;;;4444441;28;657341;-71
2021/04/24 07:30:23;;;;;;;18.30;6.37;;;8.70;99.90;;;;;;4443179;28;656723;-68
2021/04/24 07:33:11;;;;;;;16.63;6.87;;;8.90;99.90;;;;;;4443827;28;658419;-71
2021/04/24 07:35:58;;;;;;;16.60;5.87;;;8.90;99.90;;;;;;4428473;28;656599;-70
2021/04/24 07:38:45;;;;;;;11.17;5.80;;;9.00;99.90;;;;;;4449467;28;657065;-71
2021/04/24 07:41:32;;;;;;;18.10;6.00;;;8.70;99.90;;;;;;4440347;28;656419;-68
2021/04/24 07:44:19;;;;;;;17.10;5.57;;;8.50;99.90;;;;;;4451323;28;657265;-71
2021/04/24 07:47:08;;;;;;;13.00;5.20;;;8.40;99.90;;;;;;4442764;28;657349;-71
2021/04/24 07:49:56;;;;;;;16.00;5.17;;;8.60;99.90;;;;;;4420843;28;656735;-69
2021/04/24 07:52:43;;;;;;;13.77;5.60;;;8.70;99.20;;;;;;4429296;28;657586;-71
2021/04/24 07:55:30;;;;;;;13.90;5.80;;;8.90;99.10;;;;;;4448476;28;657579;-72
2021/04/24 07:58:17;;;;;;;11.77;5.37;;;8.90;98.40;;;;;;4446702;28;656455;-71
2021/04/24 08:01:04;;;;;;;15.93;5.97;;;9.20;97.80;;;;;;4449678;28;656251;-71
2021/04/24 08:03:51;;;;;;;13.50;5.40;;;9.20;96.50;;;;;;4442122;28;656506;-73
2021/04/24 08:06:39;;;;;;;14.87;5.23;;;9.00;96.10;;;;;;4428548;28;656297;-72
2021/04/24 08:09:26;;;;;;;12.13;5.37;;;9.00;97.60;;;;;;4445779;28;656618;-74
2021/04/24 08:12:13;;;;;;;14.80;5.70;;;9.50;97.20;;;;;;4428650;28;656507;-69
2021/04/24 08:15:00;;;;;;;17.50;5.87;;;9.80;95.60;;;;;;4447410;28;656983;-70
2021/04/24 08:17:47;;;;;;;14.67;5.40;;;10.10;95.00;;;;;;4428906;28;656819;-69
2021/04/24 08:20:34;;;;;;;14.98;5.22;;;10.20;93.90;;;;;;4450073;28;657753;-72
2021/04/24 08:23:22;;;;;;;13.97;6.10;;;10.30;93.30;;;;;;4441878;28;658319;-73
2021/04/24 08:26:09;;;;;;;15.33;5.47;;;10.60;94.90;;;;;;4426822;28;658329;-73
2021/04/24 08:28:56;;;;;;;19.27;4.97;;;11.10;93.90;;;;;;4441751;28;658836;-73
2021/04/24 08:31:44;;;;;;;11.30;4.87;;;10.70;90.80;;;;;;4421432;28;657359;-73
2021/04/24 08:34:30;;;;;;;13.03;5.10;;;10.30;92.50;;;;;;4447046;28;658227;-74
2021/04/24 08:37:17;;;;;;;20.87;5.63;;;9.90;91.80;;;;;;4420694;28;657851;-72
2021/04/24 08:40:07;;;;;;;12.80;5.33;;;9.70;92.30;;;;;;4452561;28;657365;-74
2021/04/24 08:42:54;;;;;;;13.80;5.43;;;9.70;93.00;;;;;;4417234;28;657637;-70
2021/04/24 08:45:42;;;;;;;10.97;4.77;;;9.80;91.80;;;;;;4444457;28;656270;-73
2021/04/24 08:48:29;;;;;;;9.60;3.90;;;10.10;90.90;;;;;;4424258;28;657382;-73
2021/04/24 08:51:16;;;;;;;14.20;4.37;;;9.80;88.00;;;;;;4432805;28;656321;-73
2021/04/24 08:54:03;;;;;;;10.73;3.80;;;9.50;88.80;;;;;;4429521;28;657093;-73
2021/04/24 08:56:51;;;;;;;8.07;3.33;;;9.60;90.90;;;;;;4448310;28;657747;-73
2021/04/24 08:59:38;;;;;;;9.10;3.37;;;9.60;87.20;;;;;;4421916;28;655895;-72
2021/04/24 09:02:25;;;;;;;7.27;3.10;;;9.80;86.10;;;;;;4448171;28;655906;-72
2021/04/24 09:05:14;;;;;;;8.18;2.80;;;10.30;82.60;;;;;;4422304;28;655961;-70
2021/04/24 09:08:02;;;;;;;7.57;3.00;;;11.00;83.30;;;;;;4440923;28;657054;-71
2021/04/24 09:10:49;;;;;;;7.00;2.53;;;11.20;77.60;;;;;;4421309;28;656841;-71
2021/04/24 09:13:36;;;;;;;8.63;3.00;;;10.90;71.00;;;;;;4431328;28;656564;-72
2021/04/24 09:16:24;;;;;;;12.07;3.67;;;10.50;74.40;;;;;;4428167;28;657053;-72
2021/04/24 09:19:28;;;;;;;9.80;2.90;;;11.10;74.70;;;;;;4438861;28;657491;-73
2021/04/24 09:22:16;;;;;;;8.17;3.10;;;11.10;70.90;;;;;;4399140;28;657166;-72
2021/04/24 09:25:05;;;;;;;11.90;3.07;;;11.00;69.00;;;;;;4427352;28;656783;-71
2021/04/24 09:27:52;;;;;;;8.43;3.20;;;11.20;65.80;;;;;;4434050;28;658006;-68
2021/04/24 09:30:41;;;;;;;8.57;3.03;;;11.80;67.80;;;;;;4445121;28;657840;-71
2021/04/24 09:33:31;;;;;;;7.53;3.20;;;12.20;66.10;;;;;;4427047;28;656800;-72
2021/04/24 09:36:18;;;;;;;6.27;2.87;;;11.90;64.50;;;;;;4424494;28;656403;-71
2021/04/24 09:39:06;;;;;;;7.33;3.23;;;11.80;64.50;;;;;;4432638;28;657783;-71
2021/04/24 09:41:53;;;;;;;8.87;3.10;;;11.60;62.90;;;;;;4389854;28;656965;-71
2021/04/24 09:44:40;;;;;;;33.60;9.23;;;11.20;66.40;;;;;;4423438;28;657231;-72
2021/04/24 09:47:46;;;;;;;8.77;3.67;;;11.00;65.10;;;;;;4410777;28;657653;-70
2021/04/24 09:50:35;;;;;;;10.33;3.00;;;11.20;64.50;;;;;;4399621;28;656560;-72
2021/04/24 09:53:24;;;;;;;8.80;3.47;;;11.60;62.30;;;;;;4443712;28;657378;-70
2021/04/24 09:56:13;;;;;;;7.17;2.90;;;11.80;65.90;;;;;;4432258;28;656575;-73
2021/04/24 09:59:01;;;;;;;6.82;3.00;;;11.60;64.30;;;;;;4408356;28;657969;-71
2021/04/24 10:01:48;;;;;;;8.97;3.00;;;11.30;59.70;;;;;;4406048;28;657094;-70
2021/04/24 10:04:36;;;;;;;8.37;2.80;;;10.80;60.60;;;;;;4428845;28;658110;-72
2021/04/24 10:07:34;;;;;;;8.97;3.07;;;10.70;63.30;;;;;;4415646;28;656774;-70
2021/04/24 10:10:26;;;;;;;6.03;2.97;;;10.60;61.50;;;;;;4402938;28;657334;-71
2021/04/24 10:13:13;;;;;;;11.00;3.70;;;10.50;62.10;;;;;;4378273;28;656428;-70
2021/04/24 10:16:00;;;;;;;9.37;3.37;;;10.60;62.70;;;;;;4430469;28;658998;-72
2021/04/24 10:18:47;;;;;;;8.53;3.10;;;10.80;66.60;;;;;;4416332;28;656554;-70
2021/04/24 10:21:35;;;;;;;10.32;3.88;;;11.50;68.60;;;;;;4436948;28;656242;-72
2021/04/24 10:24:24;;;;;;;12.57;4.00;;;11.90;64.20;;;;;;4409081;28;657358;-70
2021/04/24 10:27:12;;;;;;;8.40;3.50;;;11.90;63.40;;;;;;4446729;28;657372;-71
2021/04/24 10:30:00;;;;;;;11.27;4.23;;;11.60;63.60;;;;;;4418297;28;657264;-71
2021/04/24 10:32:47;;;;;;;7.10;3.67;;;11.50;61.20;;;;;;4430799;28;658073;-69
2021/04/24 10:35:34;;;;;;;8.20;3.50;;;11.60;61.70;;;;;;4445779;28;656779;-70
2021/04/24 10:38:22;;;;;;;8.47;3.50;;;11.70;59.50;;;;;;4449298;28;656906;-70
2021/04/24 10:41:09;;;;;;;5.50;2.97;;;11.90;61.30;;;;;;4424709;28;657609;-70
2021/04/24 10:44:03;;;;;;;6.70;3.50;;;11.80;57.60;;;;;;4450082;28;657289;-71
2021/04/24 10:46:51;;;;;;;11.50;3.30;;;11.80;58.20;;;;;;4419904;28;656528;-70
2021/04/24 10:49:52;;;;;;;9.40;3.30;;;11.70;59.80;;;;;;4429245;28;657624;-71
2021/04/24 10:52:42;;;;;;;7.57;3.30;;;11.80;59.00;;;;;;4426252;28;656598;-72
2021/04/24 10:55:30;;;;;;;12.53;3.40;;;11.70;58.30;;;;;;4417420;28;657324;-73
2021/04/24 10:58:18;;;;;;;6.73;3.00;;;11.70;59.10;;;;;;4440410;28;657773;-70
2021/04/24 11:01:06;;;;;;;8.07;3.40;;;11.80;58.90;;;;;;4449361;28;658233;-72
2021/04/24 11:03:53;;;;;;;10.20;3.50;;;11.60;59.30;;;;;;4425747;28;656526;-72
2021/04/24 11:06:40;;;;;;;11.30;3.20;;;11.20;58.50;;;;;;4446708;28;658838;-71
2021/04/24 11:09:27;;;;;;;6.50;3.10;;;11.20;57.90;;;;;;4425491;28;658038;-70
2021/04/24 11:12:15;;;;;;;10.10;3.37;;;11.20;58.80;;;;;;4451859;28;656980;-73
2021/04/24 11:15:02;;;;;;;8.47;3.00;;;11.70;59.70;;;;;;4433023;28;657587;-69
2021/04/24 11:17:50;;;;;;;8.00;2.90;;;12.20;57.20;;;;;;4453183;28;656669;-71
2021/04/24 11:20:52;;;;;;;5.27;2.60;;;12.30;54.40;;;;;;4430015;28;656746;-69
2021/04/24 11:23:46;;;;;;;6.23;2.30;;;12.30;53.30;;;;;;4421544;28;657414;-72
2021/04/24 11:26:49;;;;;;;6.20;2.60;;;12.10;54.00;;;;;;4401817;28;657195;-73
2021/04/24 11:29:37;;;;;;;12.27;4.30;;;11.80;54.20;;;;;;4429421;28;657156;-72
2021/04/24 11:32:24;;;;;;;4.77;2.67;;;11.90;54.10;;;;;;4428823;28;657931;-72
2021/04/24 11:35:14;;;;;;;9.00;2.90;;;12.30;53.50;;;;;;4448017;28;657123;-72
2021/04/24 11:38:01;;;;;;;7.10;2.90;;;12.50;54.90;;;;;;4423649;28;656683;-72
2021/04/24 11:40:48;;;;;;;8.47;3.03;;;13.00;54.30;;;;;;4430321;28;657208;-69
2021/04/24 11:43:34;;;;;;;9.33;2.73;;;12.80;53.30;;;;;;4445553;28;657999;-69
2021/04/24 11:46:34;;;;;;;7.70;2.80;;;12.60;53.50;;;;;;4445615;28;656502;-68
2021/04/24 11:49:22;;;;;;;6.97;2.97;;;12.60;52.70;;;;;;4424559;28;656828;-72
2021/04/24 11:52:09;;;;;;;8.63;3.23;;;12.50;52.40;;;;;;4428526;28;658374;-72
2021/04/24 11:54:56;;;;;;;10.60;3.20;;;12.30;52.90;;;;;;4447005;28;656200;-67
2021/04/24 11:57:43;;;;;;;7.47;3.13;;;12.00;53.50;;;;;;4427633;28;657653;-70
2021/04/24 12:00:31;;;;;;;6.57;2.90;;;11.90;54.20;;;;;;4448530;28;657949;-73
2021/04/24 12:03:18;;;;;;;7.73;3.00;;;12.00;55.00;;;;;;4426710;28;656683;-71
2021/04/24 12:06:05;;;;;;;9.30;3.40;;;12.20;55.60;;;;;;4433266;28;657449;-73
2021/04/24 12:08:59;;;;;;;10.03;3.70;;;12.40;55.70;;;;;;4429071;28;656518;-72
2021/04/24 12:11:54;;;;;;;8.87;3.27;;;12.70;54.40;;;;;;4418808;28;657547;-73
2021/04/24 12:14:41;;;;;;;9.53;3.40;;;12.90;55.40;;;;;;4424390;28;657188;-72
2021/04/24 12:17:28;;;;;;;12.23;3.70;;;13.10;55.70;;;;;;4421042;28;656831;-73
2021/04/24 12:20:23;;;;;;;10.48;3.03;;;13.10;53.50;;;;;;4448725;28;657791;-74
2021/04/24 12:23:11;;;;;;;7.23;2.73;;;13.20;54.50;;;;;;4381537;28;657965;-72
2021/04/24 12:25:58;;;;;;;7.90;3.50;;;13.60;54.80;;;;;;4407198;28;656718;-71
2021/04/24 12:28:45;;;;;;;8.97;3.17;;;14.00;52.60;;;;;;4434511;28;657495;-70
2021/04/24 12:31:32;;;;;;;9.73;3.10;;;14.70;54.10;;;;;;4428666;28;656098;-70
2021/04/24 12:34:19;;;;;;;8.87;3.50;;;14.80;50.40;;;;;;4445817;28;656468;-71
2021/04/24 12:37:09;;;;;;;7.40;3.23;;;14.30;50.40;;;;;;4448219;28;656599;-73
2021/04/24 12:40:06;;;;;;;7.80;3.07;;;14.00;50.80;;;;;;4410227;28;657252;-72
2021/04/24 12:42:54;;;;;;;8.23;3.37;;;13.90;50.50;;;;;;4400398;28;657340;-72
2021/04/24 12:45:43;;;;;;;9.87;3.20;;;13.40;52.50;;;;;;4447158;28;656774;-70
2021/04/24 12:48:34;;;;;;;12.83;3.40;;;13.50;51.20;;;;;;4413927;28;657126;-73
2021/04/24 12:51:22;;;;;;;9.77;3.60;;;14.10;53.60;;;;;;4422434;28;657660;-71
2021/04/24 12:54:16;;;;;;;8.97;3.53;;;14.20;51.80;;;;;;4427245;28;657373;-71
2021/04/24 12:57:18;;;;;;;13.37;3.53;;;14.10;51.20;;;;;;4403936;28;657008;-71
2021/04/24 13:00:08;;;;;;;7.60;3.13;;;13.90;52.20;;;;;;4417353;28;658331;-72
2021/04/24 13:02:55;;;;;;;8.07;2.67;;;13.80;50.40;;;;;;4424241;28;656689;-71
2021/04/24 13:05:42;;;;;;;5.90;3.00;;;13.50;49.30;;;;;;4428470;28;656671;-72
2021/04/24 13:08:29;;;;;;;7.37;3.27;;;13.50;51.60;;;;;;4451324;28;657081;-73
2021/04/24 13:11:17;;;;;;;7.93;2.90;;;13.50;51.60;;;;;;4446970;28;656848;-73
2021/04/24 13:14:08;;;;;;;10.93;3.50;;;13.30;52.60;;;;;;4420211;28;657393;-72
2021/04/24 13:16:55;;;;;;;6.33;3.20;;;13.40;52.40;;;;;;4421282;28;659028;-70
2021/04/24 13:19:49;;;;;;;7.03;3.53;;;13.00;51.70;;;;;;4422779;28;656957;-72
2021/04/24 13:22:38;;;;;;;8.50;3.03;;;12.80;52.60;;;;;;4414140;28;656967;-74
2021/04/24 13:25:35;;;;;;;8.83;3.20;;;12.60;53.10;;;;;;4418246;28;657141;-73
2021/04/24 13:28:32;;;;;;;10.20;3.27;;;12.50;52.20;;;;;;4444774;28;656837;-70
2021/04/24 13:31:19;;;;;;;10.37;3.33;;;12.60;54.10;;;;;;4393172;28;658581;-73
2021/04/24 13:34:25;;;;;;;8.80;3.67;;;12.60;53.00;;;;;;4438996;28;658524;-69
2021/04/24 13:37:17;;;;;;;11.23;3.23;;;12.30;54.60;;;;;;4418929;28;656705;-69
2021/04/24 13:40:05;;;;;;;7.70;2.97;;;12.90;55.30;;;;;;4422711;28;659119;-73
2021/04/24 13:42:52;;;;;;;10.77;3.20;;;13.40;53.60;;;;;;4428238;28;656367;-69
2021/04/24 13:45:40;;;;;;;11.73;3.17;;;13.20;53.20;;;;;;4449943;28;658078;-72
2021/04/24 13:48:27;;;;;;;9.23;2.80;;;12.80;53.40;;;;;;4430450;28;657643;-70
2021/04/24 13:51:14;;;;;;;7.07;3.30;;;12.70;54.50;;;;;;4446998;28;657379;-73
2021/04/24 13:54:01;;;;;;;10.93;3.17;;;12.40;54.60;;;;;;4439133;28;656213;-73
2021/04/24 13:56:49;;;;;;;8.90;3.00;;;12.20;54.60;;;;;;4416383;28;657780;-74
2021/04/24 13:59:36;;;;;;;10.97;3.27;;;12.30;55.20;;;;;;4442883;28;656403;-73
2021/04/24 14:02:24;;;;;;;14.50;3.43;;;12.50;54.60;;;;;;4425247;28;657688;-72
2021/04/24 14:05:12;;;;;;;12.47;3.57;;;12.60;54.50;;;;;;4444662;28;657513;-72
2021/04/24 14:07:59;;;;;;;9.33;3.20;;;12.90;55.70;;;;;;4425940;28;659641;-72
2021/04/24 14:10:46;;;;;;;12.17;3.57;;;13.20;54.80;;;;;;4454377;28;658040;-73
2021/04/24 14:13:33;;;;;;;9.17;3.50;;;13.20;55.50;;;;;;4429446;28;657902;-68
2021/04/24 14:16:20;;;;;;;8.87;3.70;;;12.60;55.30;;;;;;4454054;28;657023;-68